Forest Springs, Missouri
Current Conditions -  °F | °C
As of 3:40 PM on Wednesday 26 Nov 2014 (Local Time) from KIRK Reporting Station
Haze Haze  
Wind Chill: 26°   Ceiling: 300
Heat Index: 33°   Visibility: 0.75mi
Dew Point: 33°   Wind: 8mph
Humidity: 100%   Direction: 50°NE
Pressure: 29.98"   Gusts: NA
Location:  40.1258°N, 92.0041°W
Report Text: KIRK 262140Z AUTO 05007KT 3/4SM BR OVC003 01/01 A2998 RMK AO2 CIG 002V005 T00060006
Loading
Personal Weather Stations






























Interactive Weather Map New forecast layout! Learn more

10-Day Weather Forecast

Advertisements
Track Severe Weather on mobile